sensor_id;sensor_type;location;lat;lon;timestamp;P1;durP1;ratioP1;P2;durP2;ratioP2
65863;SDS011;52639;51.180;20.460;2023-07-30T00:00:49;5.90;;;3.88;;
65863;SDS011;52639;51.180;20.460;2023-07-30T00:05:12;11.45;;;4.10;;
65863;SDS011;52639;51.180;20.460;2023-07-30T00:09:15;6.95;;;4.40;;
65863;SDS011;52639;51.180;20.460;2023-07-30T00:13:18;8.20;;;4.63;;
65863;SDS011;52639;51.180;20.460;2023-07-30T00:17:22;4.97;;;3.70;;
65863;SDS011;52639;51.180;20.460;2023-07-30T00:21:25;5.32;;;3.63;;
65863;SDS011;52639;51.180;20.460;2023-07-30T00:25:28;6.05;;;3.47;;
65863;SDS011;52639;51.180;20.460;2023-07-30T00:29:31;6.93;;;3.75;;
65863;SDS011;52639;51.180;20.460;2023-07-30T00:33:35;4.80;;;3.40;;
65863;SDS011;52639;51.180;20.460;2023-07-30T00:37:37;4.57;;;3.25;;
65863;SDS011;52639;51.180;20.460;2023-07-30T00:41:40;5.57;;;3.38;;
65863;SDS011;52639;51.180;20.460;2023-07-30T00:45:44;5.43;;;3.80;;
65863;SDS011;52639;51.180;20.460;2023-07-30T00:49:48;8.18;;;3.80;;
65863;SDS011;52639;51.180;20.460;2023-07-30T00:53:51;6.57;;;3.17;;
65863;SDS011;52639;51.180;20.460;2023-07-30T00:57:54;7.15;;;3.65;;
65863;SDS011;52639;51.180;20.460;2023-07-30T01:01:58;5.65;;;3.20;;
65863;SDS011;52639;51.180;20.460;2023-07-30T01:06:04;4.85;;;3.00;;
65863;SDS011;52639;51.180;20.460;2023-07-30T01:10:07;5.10;;;3.33;;
65863;SDS011;52639;51.180;20.460;2023-07-30T01:14:12;4.93;;;3.25;;
65863;SDS011;52639;51.180;20.460;2023-07-30T01:18:16;4.82;;;2.80;;
65863;SDS011;52639;51.180;20.460;2023-07-30T01:22:23;6.00;;;2.88;;
65863;SDS011;52639;51.180;20.460;2023-07-30T01:26:27;5.28;;;3.10;;
65863;SDS011;52639;51.180;20.460;2023-07-30T01:30:35;6.00;;;3.13;;
65863;SDS011;52639;51.180;20.460;2023-07-30T01:34:41;4.28;;;3.03;;
65863;SDS011;52639;51.180;20.460;2023-07-30T01:38:48;4.35;;;2.70;;
65863;SDS011;52639;51.180;20.460;2023-07-30T01:42:51;5.03;;;2.80;;
65863;SDS011;52639;51.180;20.460;2023-07-30T01:46:55;5.45;;;2.83;;
65863;SDS011;52639;51.180;20.460;2023-07-30T01:50:58;7.15;;;3.17;;
65863;SDS011;52639;51.180;20.460;2023-07-30T01:55:03;4.85;;;3.00;;
65863;SDS011;52639;51.180;20.460;2023-07-30T01:59:06;8.95;;;3.10;;
65863;SDS011;52639;51.180;20.460;2023-07-30T02:03:09;5.57;;;3.20;;
65863;SDS011;52639;51.180;20.460;2023-07-30T02:07:12;4.93;;;3.28;;
65863;SDS011;52639;51.180;20.460;2023-07-30T02:11:16;5.13;;;3.30;;
65863;SDS011;52639;51.180;20.460;2023-07-30T02:15:19;5.72;;;3.47;;
65863;SDS011;52639;51.180;20.460;2023-07-30T02:19:22;5.57;;;3.30;;
65863;SDS011;52639;51.180;20.460;2023-07-30T02:23:26;6.13;;;3.10;;
65863;SDS011;52639;51.180;20.460;2023-07-30T02:27:31;6.43;;;3.25;;
65863;SDS011;52639;51.180;20.460;2023-07-30T02:31:34;5.47;;;2.92;;
65863;SDS011;52639;51.180;20.460;2023-07-30T02:35:37;5.47;;;3.28;;
65863;SDS011;52639;51.180;20.460;2023-07-30T02:39:40;5.07;;;3.05;;
65863;SDS011;52639;51.180;20.460;2023-07-30T02:43:44;7.88;;;3.40;;
65863;SDS011;52639;51.180;20.460;2023-07-30T02:47:47;5.53;;;3.33;;
65863;SDS011;52639;51.180;20.460;2023-07-30T02:51:50;5.90;;;3.50;;
65863;SDS011;52639;51.180;20.460;2023-07-30T02:55:53;7.07;;;3.65;;
65863;SDS011;52639;51.180;20.460;2023-07-30T02:59:57;6.18;;;4.15;;
65863;SDS011;52639;51.180;20.460;2023-07-30T03:04:00;6.18;;;4.15;;
65863;SDS011;52639;51.180;20.460;2023-07-30T03:08:03;19.42;;;7.32;;
65863;SDS011;52639;51.180;20.460;2023-07-30T03:12:07;16.88;;;7.70;;
65863;SDS011;52639;51.180;20.460;2023-07-30T03:16:12;14.57;;;6.85;;
65863;SDS011;52639;51.180;20.460;2023-07-30T03:20:15;10.07;;;5.13;;
65863;SDS011;52639;51.180;20.460;2023-07-30T03:24:18;10.38;;;4.93;;
65863;SDS011;52639;51.180;20.460;2023-07-30T03:28:20;5.82;;;3.83;;
65863;SDS011;52639;51.180;20.460;2023-07-30T03:32:25;7.15;;;4.65;;
65863;SDS011;52639;51.180;20.460;2023-07-30T03:36:27;9.15;;;5.05;;
65863;SDS011;52639;51.180;20.460;2023-07-30T03:40:30;12.30;;;5.85;;
65863;SDS011;52639;51.180;20.460;2023-07-30T03:44:33;10.30;;;5.32;;
65863;SDS011;52639;51.180;20.460;2023-07-30T03:48:38;12.02;;;6.78;;
65863;SDS011;52639;51.180;20.460;2023-07-30T03:52:40;9.80;;;5.18;;
65863;SDS011;52639;51.180;20.460;2023-07-30T03:56:43;8.65;;;4.85;;
65863;SDS011;52639;51.180;20.460;2023-07-30T04:00:46;7.03;;;3.50;;
65863;SDS011;52639;51.180;20.460;2023-07-30T04:04:50;13.18;;;4.93;;
65863;SDS011;52639;51.180;20.460;2023-07-30T04:08:53;5.82;;;3.65;;
65863;SDS011;52639;51.180;20.460;2023-07-30T04:12:56;7.35;;;3.60;;
65863;SDS011;52639;51.180;20.460;2023-07-30T04:16:59;6.25;;;4.05;;
65863;SDS011;52639;51.180;20.460;2023-07-30T04:21:03;7.45;;;4.82;;
65863;SDS011;52639;51.180;20.460;2023-07-30T04:25:06;6.72;;;4.40;;
65863;SDS011;52639;51.180;20.460;2023-07-30T04:29:11;9.25;;;4.90;;
65863;SDS011;52639;51.180;20.460;2023-07-30T04:33:15;7.68;;;4.93;;
65863;SDS011;52639;51.180;20.460;2023-07-30T04:37:19;7.85;;;4.68;;
65863;SDS011;52639;51.180;20.460;2023-07-30T04:41:22;7.57;;;4.85;;
65863;SDS011;52639;51.180;20.460;2023-07-30T04:45:25;9.55;;;5.75;;
65863;SDS011;52639;51.180;20.460;2023-07-30T04:49:28;8.48;;;5.90;;
65863;SDS011;52639;51.180;20.460;2023-07-30T04:53:32;8.70;;;5.75;;
65863;SDS011;52639;51.180;20.460;2023-07-30T04:57:35;8.63;;;5.78;;
65863;SDS011;52639;51.180;20.460;2023-07-30T05:01:38;11.60;;;5.72;;
65863;SDS011;52639;51.180;20.460;2023-07-30T05:05:41;10.68;;;5.28;;
65863;SDS011;52639;51.180;20.460;2023-07-30T05:09:45;12.13;;;5.57;;
65863;SDS011;52639;51.180;20.460;2023-07-30T05:13:48;11.45;;;5.95;;
65863;SDS011;52639;51.180;20.460;2023-07-30T05:17:51;10.77;;;5.72;;
65863;SDS011;52639;51.180;20.460;2023-07-30T05:21:54;10.07;;;4.93;;
65863;SDS011;52639;51.180;20.460;2023-07-30T05:25:58;10.15;;;5.05;;
65863;SDS011;52639;51.180;20.460;2023-07-30T05:30:01;11.80;;;5.43;;
65863;SDS011;52639;51.180;20.460;2023-07-30T05:34:04;10.43;;;5.65;;
65863;SDS011;52639;51.180;20.460;2023-07-30T05:38:07;12.23;;;6.47;;
65863;SDS011;52639;51.180;20.460;2023-07-30T05:42:12;11.15;;;5.47;;
65863;SDS011;52639;51.180;20.460;2023-07-30T05:46:14;12.85;;;6.32;;
65863;SDS011;52639;51.180;20.460;2023-07-30T05:50:17;11.60;;;5.60;;
65863;SDS011;52639;51.180;20.460;2023-07-30T05:54:20;16.13;;;6.25;;
65863;SDS011;52639;51.180;20.460;2023-07-30T05:58:25;13.60;;;5.28;;
65863;SDS011;52639;51.180;20.460;2023-07-30T06:02:28;14.38;;;5.13;;
65863;SDS011;52639;51.180;20.460;2023-07-30T06:06:32;8.63;;;5.00;;
65863;SDS011;52639;51.180;20.460;2023-07-30T06:10:35;9.30;;;5.18;;
65863;SDS011;52639;51.180;20.460;2023-07-30T06:14:39;10.38;;;4.65;;
65863;SDS011;52639;51.180;20.460;2023-07-30T06:18:42;13.07;;;4.68;;
65863;SDS011;52639;51.180;20.460;2023-07-30T06:22:45;8.90;;;4.20;;
65863;SDS011;52639;51.180;20.460;2023-07-30T06:26:48;7.30;;;3.90;;
65863;SDS011;52639;51.180;20.460;2023-07-30T06:30:52;10.82;;;4.35;;
65863;SDS011;52639;51.180;20.460;2023-07-30T06:34:56;9.57;;;4.30;;
65863;SDS011;52639;51.180;20.460;2023-07-30T06:38:59;7.22;;;3.33;;
65863;SDS011;52639;51.180;20.460;2023-07-30T06:43:02;4.18;;;2.90;;
65863;SDS011;52639;51.180;20.460;2023-07-30T06:47:06;3.65;;;2.90;;
65863;SDS011;52639;51.180;20.460;2023-07-30T06:51:09;6.43;;;3.38;;
65863;SDS011;52639;51.180;20.460;2023-07-30T06:55:13;5.00;;;2.83;;
65863;SDS011;52639;51.180;20.460;2023-07-30T06:59:16;6.15;;;2.47;;
65863;SDS011;52639;51.180;20.460;2023-07-30T07:03:21;4.15;;;3.00;;
65863;SDS011;52639;51.180;20.460;2023-07-30T07:07:24;3.53;;;2.60;;
65863;SDS011;52639;51.180;20.460;2023-07-30T07:11:27;5.45;;;2.95;;
65863;SDS011;52639;51.180;20.460;2023-07-30T07:15:30;9.15;;;3.03;;
65863;SDS011;52639;51.180;20.460;2023-07-30T07:19:34;5.57;;;2.60;;
65863;SDS011;52639;51.180;20.460;2023-07-30T07:23:38;4.22;;;2.38;;
65863;SDS011;52639;51.180;20.460;2023-07-30T07:27:40;4.60;;;2.70;;
65863;SDS011;52639;51.180;20.460;2023-07-30T07:31:44;5.75;;;2.30;;
65863;SDS011;52639;51.180;20.460;2023-07-30T07:35:49;5.82;;;2.90;;
65863;SDS011;52639;51.180;20.460;2023-07-30T07:39:52;6.28;;;2.63;;
65863;SDS011;52639;51.180;20.460;2023-07-30T07:43:55;4.40;;;2.17;;
65863;SDS011;52639;51.180;20.460;2023-07-30T07:47:58;3.97;;;2.40;;
65863;SDS011;52639;51.180;20.460;2023-07-30T07:52:02;3.80;;;2.30;;
65863;SDS011;52639;51.180;20.460;2023-07-30T07:56:06;3.17;;;2.30;;
65863;SDS011;52639;51.180;20.460;2023-07-30T08:00:10;4.78;;;2.28;;
65863;SDS011;52639;51.180;20.460;2023-07-30T08:04:13;3.85;;;2.03;;
65863;SDS011;52639;51.180;20.460;2023-07-30T08:08:18;4.60;;;2.47;;
65863;SDS011;52639;51.180;20.460;2023-07-30T08:12:20;4.95;;;2.58;;
65863;SDS011;52639;51.180;20.460;2023-07-30T08:16:23;4.00;;;2.20;;
65863;SDS011;52639;51.180;20.460;2023-07-30T08:20:27;3.92;;;2.13;;
65863;SDS011;52639;51.180;20.460;2023-07-30T08:24:31;4.88;;;2.75;;
65863;SDS011;52639;51.180;20.460;2023-07-30T08:28:34;4.50;;;2.58;;
65863;SDS011;52639;51.180;20.460;2023-07-30T08:32:37;1.90;;;1.75;;
65863;SDS011;52639;51.180;20.460;2023-07-30T08:36:40;3.80;;;2.08;;
65863;SDS011;52639;51.180;20.460;2023-07-30T08:40:44;3.97;;;1.70;;
65863;SDS011;52639;51.180;20.460;2023-07-30T08:44:47;2.80;;;1.95;;
65863;SDS011;52639;51.180;20.460;2023-07-30T08:48:50;2.92;;;2.13;;
65863;SDS011;52639;51.180;20.460;2023-07-30T08:52:53;4.57;;;2.00;;
65863;SDS011;52639;51.180;20.460;2023-07-30T08:56:59;3.47;;;1.85;;
65863;SDS011;52639;51.180;20.460;2023-07-30T09:01:03;2.63;;;2.20;;
65863;SDS011;52639;51.180;20.460;2023-07-30T09:16:39;3.38;;;2.10;;
65863;SDS011;52639;51.180;20.460;2023-07-30T09:20:47;7.63;;;2.35;;
65863;SDS011;52639;51.180;20.460;2023-07-30T09:24:53;4.70;;;2.42;;
65863;SDS011;52639;51.180;20.460;2023-07-30T09:29:07;3.92;;;2.60;;
65863;SDS011;52639;51.180;20.460;2023-07-30T09:33:13;4.13;;;2.55;;
65863;SDS011;52639;51.180;20.460;2023-07-30T09:37:22;4.15;;;2.40;;
65863;SDS011;52639;51.180;20.460;2023-07-30T09:41:28;8.75;;;2.60;;
65863;SDS011;52639;51.180;20.460;2023-07-30T09:45:38;2.88;;;2.10;;
65863;SDS011;52639;51.180;20.460;2023-07-30T09:49:48;3.65;;;2.30;;
65863;SDS011;52639;51.180;20.460;2023-07-30T09:53:58;5.15;;;2.38;;
65863;SDS011;52639;51.180;20.460;2023-07-30T09:58:06;2.70;;;2.20;;
65863;SDS011;52639;51.180;20.460;2023-07-30T10:02:15;3.03;;;2.40;;
65863;SDS011;52639;51.180;20.460;2023-07-30T10:10:57;3.10;;;2.25;;
65863;SDS011;52639;51.180;20.460;2023-07-30T10:15:10;4.10;;;2.70;;
65863;SDS011;52639;51.180;20.460;2023-07-30T10:19:22;3.20;;;2.33;;
65863;SDS011;52639;51.180;20.460;2023-07-30T10:23:34;3.60;;;2.38;;
65863;SDS011;52639;51.180;20.460;2023-07-30T10:27:40;5.63;;;2.15;;
65863;SDS011;52639;51.180;20.460;2023-07-30T10:36:48;4.30;;;2.50;;
65863;SDS011;52639;51.180;20.460;2023-07-30T10:41:13;5.93;;;2.75;;
65863;SDS011;52639;51.180;20.460;2023-07-30T10:45:28;5.78;;;2.80;;
65863;SDS011;52639;51.180;20.460;2023-07-30T10:49:35;3.90;;;2.10;;
65863;SDS011;52639;51.180;20.460;2023-07-30T10:53:41;3.90;;;2.45;;
65863;SDS011;52639;51.180;20.460;2023-07-30T10:57:45;3.42;;;2.20;;
65863;SDS011;52639;51.180;20.460;2023-07-30T11:01:54;2.88;;;2.05;;
65863;SDS011;52639;51.180;20.460;2023-07-30T11:05:57;3.90;;;2.15;;
65863;SDS011;52639;51.180;20.460;2023-07-30T11:09:59;5.00;;;2.30;;
65863;SDS011;52639;51.180;20.460;2023-07-30T11:28:38;5.00;;;2.75;;
65863;SDS011;52639;51.180;20.460;2023-07-30T11:32:42;2.78;;;2.20;;
65863;SDS011;52639;51.180;20.460;2023-07-30T11:36:45;3.08;;;2.10;;
65863;SDS011;52639;51.180;20.460;2023-07-30T11:40:49;3.50;;;2.22;;
65863;SDS011;52639;51.180;20.460;2023-07-30T11:44:54;2.65;;;2.13;;
65863;SDS011;52639;51.180;20.460;2023-07-30T11:49:10;3.90;;;2.00;;
65863;SDS011;52639;51.180;20.460;2023-07-30T11:53:14;3.33;;;2.15;;
65863;SDS011;52639;51.180;20.460;2023-07-30T11:57:17;2.97;;;2.08;;
65863;SDS011;52639;51.180;20.460;2023-07-30T12:01:22;3.17;;;2.00;;
65863;SDS011;52639;51.180;20.460;2023-07-30T12:05:32;3.58;;;2.17;;
65863;SDS011;52639;51.180;20.460;2023-07-30T12:09:41;3.03;;;2.00;;
65863;SDS011;52639;51.180;20.460;2023-07-30T12:13:44;5.22;;;2.10;;
65863;SDS011;52639;51.180;20.460;2023-07-30T12:17:48;2.42;;;1.83;;
65863;SDS011;52639;51.180;20.460;2023-07-30T12:21:52;2.40;;;1.90;;
65863;SDS011;52639;51.180;20.460;2023-07-30T12:25:54;3.55;;;2.40;;
65863;SDS011;52639;51.180;20.460;2023-07-30T12:29:57;3.15;;;2.10;;
65863;SDS011;52639;51.180;20.460;2023-07-30T12:34:01;6.35;;;2.85;;
65863;SDS011;52639;51.180;20.460;2023-07-30T12:38:04;4.47;;;2.13;;
65863;SDS011;52639;51.180;20.460;2023-07-30T12:42:07;5.18;;;2.15;;
65863;SDS011;52639;51.180;20.460;2023-07-30T12:46:10;3.00;;;2.00;;
65863;SDS011;52639;51.180;20.460;2023-07-30T12:50:14;3.95;;;2.03;;
65863;SDS011;52639;51.180;20.460;2023-07-30T12:54:17;2.40;;;2.20;;
65863;SDS011;52639;51.180;20.460;2023-07-30T12:58:20;6.20;;;2.10;;
65863;SDS011;52639;51.180;20.460;2023-07-30T13:02:23;2.65;;;1.90;;
65863;SDS011;52639;51.180;20.460;2023-07-30T13:06:28;2.10;;;1.77;;
65863;SDS011;52639;51.180;20.460;2023-07-30T13:10:30;3.97;;;1.90;;
65863;SDS011;52639;51.180;20.460;2023-07-30T13:14:33;4.00;;;2.10;;
65863;SDS011;52639;51.180;20.460;2023-07-30T13:18:37;4.75;;;2.13;;
65863;SDS011;52639;51.180;20.460;2023-07-30T13:22:43;5.13;;;2.20;;
65863;SDS011;52639;51.180;20.460;2023-07-30T13:26:48;4.53;;;2.55;;
65863;SDS011;52639;51.180;20.460;2023-07-30T13:30:51;4.18;;;2.58;;
65863;SDS011;52639;51.180;20.460;2023-07-30T13:34:54;3.20;;;2.13;;
65863;SDS011;52639;51.180;20.460;2023-07-30T13:39:00;3.90;;;2.33;;
65863;SDS011;52639;51.180;20.460;2023-07-30T13:43:03;3.50;;;2.20;;
65863;SDS011;52639;51.180;20.460;2023-07-30T13:47:07;2.97;;;2.20;;
65863;SDS011;52639;51.180;20.460;2023-07-30T13:51:11;4.72;;;2.10;;
65863;SDS011;52639;51.180;20.460;2023-07-30T13:55:15;2.28;;;2.00;;
65863;SDS011;52639;51.180;20.460;2023-07-30T13:59:21;2.97;;;2.38;;
65863;SDS011;52639;51.180;20.460;2023-07-30T14:03:24;3.25;;;2.28;;
65863;SDS011;52639;51.180;20.460;2023-07-30T14:07:28;3.45;;;2.13;;
65863;SDS011;52639;51.180;20.460;2023-07-30T14:11:33;3.17;;;2.08;;
65863;SDS011;52639;51.180;20.460;2023-07-30T14:15:38;3.40;;;2.30;;
65863;SDS011;52639;51.180;20.460;2023-07-30T14:19:41;5.28;;;2.30;;
65863;SDS011;52639;51.180;20.460;2023-07-30T14:23:46;5.45;;;2.47;;
65863;SDS011;52639;51.180;20.460;2023-07-30T14:32:26;4.10;;;2.58;;
65863;SDS011;52639;51.180;20.460;2023-07-30T14:36:29;3.20;;;2.28;;
65863;SDS011;52639;51.180;20.460;2023-07-30T14:40:33;4.97;;;2.25;;
65863;SDS011;52639;51.180;20.460;2023-07-30T14:44:39;3.78;;;2.20;;
65863;SDS011;52639;51.180;20.460;2023-07-30T14:48:42;4.28;;;2.50;;
65863;SDS011;52639;51.180;20.460;2023-07-30T14:52:46;4.60;;;2.50;;
65863;SDS011;52639;51.180;20.460;2023-07-30T14:56:50;4.13;;;2.45;;
65863;SDS011;52639;51.180;20.460;2023-07-30T15:00:55;4.68;;;2.45;;
65863;SDS011;52639;51.180;20.460;2023-07-30T15:04:58;3.25;;;2.20;;
65863;SDS011;52639;51.180;20.460;2023-07-30T15:09:02;3.40;;;2.50;;
65863;SDS011;52639;51.180;20.460;2023-07-30T15:13:08;6.55;;;2.63;;
65863;SDS011;52639;51.180;20.460;2023-07-30T15:17:13;3.78;;;2.67;;
65863;SDS011;52639;51.180;20.460;2023-07-30T15:21:16;3.13;;;2.50;;
65863;SDS011;52639;51.180;20.460;2023-07-30T15:25:20;3.22;;;2.40;;
65863;SDS011;52639;51.180;20.460;2023-07-30T15:29:23;3.47;;;2.55;;
65863;SDS011;52639;51.180;20.460;2023-07-30T15:33:28;6.95;;;3.80;;
65863;SDS011;52639;51.180;20.460;2023-07-30T15:37:32;4.78;;;3.20;;
65863;SDS011;52639;51.180;20.460;2023-07-30T15:41:35;4.53;;;3.00;;
65863;SDS011;52639;51.180;20.460;2023-07-30T15:45:39;3.90;;;2.90;;
65863;SDS011;52639;51.180;20.460;2023-07-30T15:49:46;3.88;;;2.63;;
65863;SDS011;52639;51.180;20.460;2023-07-30T15:53:50;3.50;;;2.63;;
65863;SDS011;52639;51.180;20.460;2023-07-30T15:57:54;3.45;;;2.70;;
65863;SDS011;52639;51.180;20.460;2023-07-30T16:01:59;3.35;;;2.58;;
65863;SDS011;52639;51.180;20.460;2023-07-30T16:06:03;3.85;;;2.78;;
65863;SDS011;52639;51.180;20.460;2023-07-30T16:10:08;5.80;;;2.92;;
65863;SDS011;52639;51.180;20.460;2023-07-30T16:14:12;4.60;;;2.33;;
65863;SDS011;52639;51.180;20.460;2023-07-30T16:18:16;3.60;;;2.47;;
65863;SDS011;52639;51.180;20.460;2023-07-30T16:22:20;4.55;;;2.70;;
65863;SDS011;52639;51.180;20.460;2023-07-30T16:26:25;4.30;;;2.60;;
65863;SDS011;52639;51.180;20.460;2023-07-30T16:30:29;3.65;;;2.60;;
65863;SDS011;52639;51.180;20.460;2023-07-30T16:34:33;3.63;;;2.70;;
65863;SDS011;52639;51.180;20.460;2023-07-30T16:38:39;2.80;;;2.08;;
65863;SDS011;52639;51.180;20.460;2023-07-30T16:42:44;2.85;;;1.90;;
65863;SDS011;52639;51.180;20.460;2023-07-30T16:46:47;3.15;;;2.28;;
65863;SDS011;52639;51.180;20.460;2023-07-30T16:50:52;3.47;;;2.53;;
65863;SDS011;52639;51.180;20.460;2023-07-30T16:54:58;3.35;;;2.50;;
65863;SDS011;52639;51.180;20.460;2023-07-30T16:59:02;3.38;;;2.70;;
65863;SDS011;52639;51.180;20.460;2023-07-30T17:03:06;9.50;;;3.00;;
65863;SDS011;52639;51.180;20.460;2023-07-30T17:07:11;4.07;;;2.63;;
65863;SDS011;52639;51.180;20.460;2023-07-30T17:11:15;3.45;;;2.50;;
65863;SDS011;52639;51.180;20.460;2023-07-30T17:15:20;6.25;;;2.75;;
65863;SDS011;52639;51.180;20.460;2023-07-30T17:19:23;3.88;;;2.65;;
65863;SDS011;52639;51.180;20.460;2023-07-30T17:23:27;4.78;;;2.90;;
65863;SDS011;52639;51.180;20.460;2023-07-30T17:27:33;5.97;;;4.20;;
65863;SDS011;52639;51.180;20.460;2023-07-30T17:31:37;7.85;;;4.75;;
65863;SDS011;52639;51.180;20.460;2023-07-30T17:35:42;11.77;;;5.80;;
65863;SDS011;52639;51.180;20.460;2023-07-30T17:39:46;6.95;;;4.78;;
65863;SDS011;52639;51.180;20.460;2023-07-30T17:43:52;11.57;;;6.10;;
65863;SDS011;52639;51.180;20.460;2023-07-30T17:47:56;6.32;;;4.70;;
65863;SDS011;52639;51.180;20.460;2023-07-30T17:52:00;9.15;;;6.00;;
65863;SDS011;52639;51.180;20.460;2023-07-30T17:56:04;5.85;;;4.32;;
65863;SDS011;52639;51.180;20.460;2023-07-30T18:00:11;7.85;;;3.97;;
65863;SDS011;52639;51.180;20.460;2023-07-30T18:04:15;6.55;;;4.10;;
65863;SDS011;52639;51.180;20.460;2023-07-30T18:08:19;4.75;;;3.33;;
65863;SDS011;52639;51.180;20.460;2023-07-30T18:12:24;5.05;;;3.60;;
65863;SDS011;52639;51.180;20.460;2023-07-30T18:16:30;6.20;;;3.97;;
65863;SDS011;52639;51.180;20.460;2023-07-30T18:20:34;9.75;;;4.45;;
65863;SDS011;52639;51.180;20.460;2023-07-30T18:24:38;9.73;;;3.85;;
65863;SDS011;52639;51.180;20.460;2023-07-30T18:28:41;6.43;;;4.65;;
65863;SDS011;52639;51.180;20.460;2023-07-30T18:32:48;5.50;;;3.63;;
65863;SDS011;52639;51.180;20.460;2023-07-30T18:36:52;5.97;;;3.70;;
65863;SDS011;52639;51.180;20.460;2023-07-30T18:40:55;4.68;;;3.60;;
65863;SDS011;52639;51.180;20.460;2023-07-30T18:45:04;4.90;;;3.67;;
65863;SDS011;52639;51.180;20.460;2023-07-30T18:49:10;8.05;;;3.90;;
65863;SDS011;52639;51.180;20.460;2023-07-30T18:53:13;5.03;;;3.60;;
65863;SDS011;52639;51.180;20.460;2023-07-30T18:57:17;4.97;;;3.75;;
65863;SDS011;52639;51.180;20.460;2023-07-30T19:01:21;5.00;;;3.65;;
65863;SDS011;52639;51.180;20.460;2023-07-30T19:05:28;5.03;;;3.60;;
65863;SDS011;52639;51.180;20.460;2023-07-30T19:09:31;6.65;;;3.78;;
65863;SDS011;52639;51.180;20.460;2023-07-30T19:13:36;5.88;;;3.72;;
65863;SDS011;52639;51.180;20.460;2023-07-30T19:17:39;5.57;;;3.58;;
65863;SDS011;52639;51.180;20.460;2023-07-30T19:21:45;5.80;;;3.85;;
65863;SDS011;52639;51.180;20.460;2023-07-30T19:25:53;5.43;;;3.75;;
65863;SDS011;52639;51.180;20.460;2023-07-30T19:29:57;4.68;;;3.42;;
65863;SDS011;52639;51.180;20.460;2023-07-30T19:34:06;6.65;;;4.25;;
65863;SDS011;52639;51.180;20.460;2023-07-30T19:38:13;5.55;;;3.25;;
65863;SDS011;52639;51.180;20.460;2023-07-30T19:42:17;5.00;;;3.50;;
65863;SDS011;52639;51.180;20.460;2023-07-30T19:46:20;5.22;;;3.30;;
65863;SDS011;52639;51.180;20.460;2023-07-30T19:50:23;6.15;;;3.47;;
65863;SDS011;52639;51.180;20.460;2023-07-30T19:54:30;6.55;;;3.78;;
65863;SDS011;52639;51.180;20.460;2023-07-30T19:58:36;6.32;;;3.15;;
65863;SDS011;52639;51.180;20.460;2023-07-30T20:02:41;5.22;;;3.22;;
65863;SDS011;52639;51.180;20.460;2023-07-30T20:06:47;6.35;;;3.75;;
65863;SDS011;52639;51.180;20.460;2023-07-30T20:10:56;5.53;;;3.72;;
65863;SDS011;52639;51.180;20.460;2023-07-30T20:15:02;5.38;;;3.30;;
65863;SDS011;52639;51.180;20.460;2023-07-30T20:19:06;5.97;;;4.00;;
65863;SDS011;52639;51.180;20.460;2023-07-30T20:23:10;5.63;;;3.67;;
65863;SDS011;52639;51.180;20.460;2023-07-30T20:27:16;7.38;;;4.30;;
65863;SDS011;52639;51.180;20.460;2023-07-30T20:31:20;6.50;;;4.13;;
65863;SDS011;52639;51.180;20.460;2023-07-30T20:35:24;6.63;;;4.82;;
65863;SDS011;52639;51.180;20.460;2023-07-30T20:39:27;6.72;;;5.18;;
65863;SDS011;52639;51.180;20.460;2023-07-30T20:43:33;5.78;;;4.57;;
65863;SDS011;52639;51.180;20.460;2023-07-30T20:47:38;8.77;;;4.97;;
65863;SDS011;52639;51.180;20.460;2023-07-30T20:51:41;8.95;;;5.25;;
65863;SDS011;52639;51.180;20.460;2023-07-30T20:55:47;6.70;;;5.18;;
65863;SDS011;52639;51.180;20.460;2023-07-30T20:59:52;9.07;;;5.47;;
65863;SDS011;52639;51.180;20.460;2023-07-30T21:03:55;9.02;;;6.45;;
65863;SDS011;52639;51.180;20.460;2023-07-30T21:07:57;6.25;;;5.00;;
65863;SDS011;52639;51.180;20.460;2023-07-30T21:12:00;8.57;;;5.97;;
65863;SDS011;52639;51.180;20.460;2023-07-30T21:16:06;10.02;;;6.32;;
65863;SDS011;52639;51.180;20.460;2023-07-30T21:20:09;9.07;;;6.70;;
65863;SDS011;52639;51.180;20.460;2023-07-30T21:24:12;9.07;;;6.18;;
65863;SDS011;52639;51.180;20.460;2023-07-30T21:28:15;9.02;;;5.75;;
65863;SDS011;52639;51.180;20.460;2023-07-30T21:32:19;8.02;;;6.00;;
65863;SDS011;52639;51.180;20.460;2023-07-30T21:36:22;7.60;;;6.10;;
65863;SDS011;52639;51.180;20.460;2023-07-30T21:40:24;9.57;;;5.70;;
65863;SDS011;52639;51.180;20.460;2023-07-30T21:44:27;9.23;;;5.93;;
65863;SDS011;52639;51.180;20.460;2023-07-30T21:48:31;7.68;;;5.28;;
65863;SDS011;52639;51.180;20.460;2023-07-30T21:52:35;7.28;;;5.40;;
65863;SDS011;52639;51.180;20.460;2023-07-30T21:56:38;6.53;;;5.43;;
65863;SDS011;52639;51.180;20.460;2023-07-30T22:00:42;8.20;;;5.55;;
65863;SDS011;52639;51.180;20.460;2023-07-30T22:04:50;7.80;;;5.82;;
65863;SDS011;52639;51.180;20.460;2023-07-30T22:08:53;7.20;;;5.38;;
65863;SDS011;52639;51.180;20.460;2023-07-30T22:12:56;9.10;;;5.45;;
65863;SDS011;52639;51.180;20.460;2023-07-30T22:16:59;9.55;;;6.13;;
65863;SDS011;52639;51.180;20.460;2023-07-30T22:21:03;10.43;;;6.32;;
65863;SDS011;52639;51.180;20.460;2023-07-30T22:25:06;9.95;;;6.95;;
65863;SDS011;52639;51.180;20.460;2023-07-30T22:29:09;11.52;;;6.93;;
65863;SDS011;52639;51.180;20.460;2023-07-30T22:33:12;9.73;;;6.45;;
65863;SDS011;52639;51.180;20.460;2023-07-30T22:37:16;9.18;;;6.32;;
65863;SDS011;52639;51.180;20.460;2023-07-30T22:41:19;8.25;;;6.43;;
65863;SDS011;52639;51.180;20.460;2023-07-30T22:45:22;9.07;;;5.75;;
65863;SDS011;52639;51.180;20.460;2023-07-30T22:49:25;9.68;;;6.00;;
65863;SDS011;52639;51.180;20.460;2023-07-30T22:53:29;9.43;;;6.10;;
65863;SDS011;52639;51.180;20.460;2023-07-30T22:57:32;8.98;;;6.22;;
65863;SDS011;52639;51.180;20.460;2023-07-30T23:01:34;9.85;;;6.05;;
65863;SDS011;52639;51.180;20.460;2023-07-30T23:05:37;7.07;;;5.20;;
65863;SDS011;52639;51.180;20.460;2023-07-30T23:09:41;6.13;;;4.90;;
65863;SDS011;52639;51.180;20.460;2023-07-30T23:13:44;7.10;;;5.72;;
65863;SDS011;52639;51.180;20.460;2023-07-30T23:17:47;8.10;;;5.32;;
65863;SDS011;52639;51.180;20.460;2023-07-30T23:21:50;7.13;;;5.22;;
65863;SDS011;52639;51.180;20.460;2023-07-30T23:25:54;6.65;;;4.72;;
65863;SDS011;52639;51.180;20.460;2023-07-30T23:29:57;7.78;;;5.03;;
65863;SDS011;52639;51.180;20.460;2023-07-30T23:34:00;7.38;;;4.60;;
65863;SDS011;52639;51.180;20.460;2023-07-30T23:38:03;9.52;;;4.78;;
65863;SDS011;52639;51.180;20.460;2023-07-30T23:42:07;6.53;;;5.32;;
65863;SDS011;52639;51.180;20.460;2023-07-30T23:46:10;6.90;;;4.72;;
65863;SDS011;52639;51.180;20.460;2023-07-30T23:50:13;10.70;;;5.05;;
65863;SDS011;52639;51.180;20.460;2023-07-30T23:54:16;6.85;;;4.80;;
65863;SDS011;52639;51.180;20.460;2023-07-30T23:58:20;7.15;;;5.03;;
